Zhongchuan Airport
ZLLL : now visible

Airfield :











YOU CAN JOIN US ON...

 
LOGIN :

Register | Disclaimer

   EN    FR    IT 

 









Legend :    VFR   Marginal VFR   IFR   Intensive IFR   Very Intensive IFR
Visi :
Ceiling :
>= 8 km
>= 3000ft
5 to 8 km
1000 to 3000 ft
1500m to 5 km
500 to 1000 ft
800 to 1500m
200 to 500 ft
< 800m
< 200 ft
Symbols :   Thunderstorms  Fog  Heavy snow  Heavy precipitations  Wind > 20 kt






- Airport Elevation : 6388 ft
- IATA code : ZGC


ZLLL - Zhongchuan

CURRENT METAR :
  • 150400Z VRB01MPS 5000 BR FEW016 OVC040 02/M03 Q1012 NOSIG

EXPIRED METARs :
  • 150300Z VRB01MPS 5000 BR FEW016 OVC030 01/M03 Q1013 NOSIG
  • 150200Z VRB01MPS 5000 BR FEW016 OVC030 00/M03 Q1012 NOSIG

TAF TAF ZLLL
Valid from the 15 at 00:00 until the 16 at 00:00 UTC


141914Z 1500/1524 03003MPS 6000 BKN040 TX02/1508Z TNM09/23Z



MET'MAP, your aeronautical weather chart ! - Copyright ORBIFLY December 2007 - Disclaimer

ORBIFLY MET'MAP TEAM :

Programming & Development : Alexandra Zaïnal
Concept & original design : Baudouin d'Aumeries
Assistance for programming : Marc-Olivier Méhu
Technical & hardware support : Manuel Goepfert

Contact : metmap@orbifly.com




SOURCES & CREDITS :

   NOAA       Earth
Advisory